sensor_id;sensor_type;location;lat;lon;timestamp;P1;durP1;ratioP1;P2;durP2;ratioP2
76379;SDS011;65201;21.060;105.826;2023-02-28T10:30:42;46.03;;;26.83;;
76379;SDS011;65201;21.060;105.826;2023-02-28T10:33:17;45.13;;;27.63;;
76379;SDS011;65201;21.060;105.826;2023-02-28T10:35:44;45.13;;;26.60;;
76379;SDS011;65201;21.060;105.826;2023-02-28T10:38:52;42.45;;;26.20;;
76379;SDS011;65201;21.060;105.826;2023-02-28T10:41:42;42.55;;;27.00;;
76379;SDS011;65201;21.060;105.826;2023-02-28T10:43:48;46.95;;;26.35;;
76379;SDS011;65201;21.060;105.826;2023-02-28T10:46:18;41.28;;;26.10;;
76379;SDS011;65201;21.060;105.826;2023-02-28T10:49:01;41.03;;;26.37;;
76379;SDS011;65201;21.060;105.826;2023-02-28T10:51:34;39.60;;;26.48;;
76379;SDS011;65201;21.060;105.826;2023-02-28T10:54:00;39.80;;;26.00;;
76379;SDS011;65201;21.060;105.826;2023-02-28T10:56:27;43.05;;;27.02;;
76379;SDS011;65201;21.060;105.826;2023-02-28T10:58:54;45.55;;;28.35;;
76379;SDS011;65201;21.060;105.826;2023-02-28T11:04:00;41.63;;;26.95;;
76379;SDS011;65201;21.060;105.826;2023-02-28T11:06:30;42.17;;;26.05;;
76379;SDS011;65201;21.060;105.826;2023-02-28T11:09:00;40.50;;;27.05;;
76379;SDS011;65201;21.060;105.826;2023-02-28T11:11:28;40.40;;;26.85;;
76379;SDS011;65201;21.060;105.826;2023-02-28T11:13:57;45.77;;;28.43;;
76379;SDS011;65201;21.060;105.826;2023-02-28T11:16:32;47.38;;;26.98;;
76379;SDS011;65201;21.060;105.826;2023-02-28T11:18:59;46.20;;;26.33;;
76379;SDS011;65201;21.060;105.826;2023-02-28T11:23:52;41.28;;;26.02;;
76379;SDS011;65201;21.060;105.826;2023-02-28T11:26:38;44.00;;;26.83;;
76379;SDS011;65201;21.060;105.826;2023-02-28T11:29:09;40.90;;;26.52;;
76379;SDS011;65201;21.060;105.826;2023-02-28T11:31:36;43.75;;;26.52;;
76379;SDS011;65201;21.060;105.826;2023-02-28T11:34:07;47.42;;;28.20;;
76379;SDS011;65201;21.060;105.826;2023-02-28T11:36:47;42.40;;;27.17;;
76379;SDS011;65201;21.060;105.826;2023-02-28T11:39:14;39.47;;;26.37;;
76379;SDS011;65201;21.060;105.826;2023-02-28T11:44:39;48.15;;;29.27;;
76379;SDS011;65201;21.060;105.826;2023-02-28T11:47:14;43.72;;;27.30;;
76379;SDS011;65201;21.060;105.826;2023-02-28T11:49:58;43.75;;;27.60;;
76379;SDS011;65201;21.060;105.826;2023-02-28T11:55:39;42.17;;;27.30;;
76379;SDS011;65201;21.060;105.826;2023-02-28T11:58:16;46.55;;;27.77;;
76379;SDS011;65201;21.060;105.826;2023-02-28T12:03:35;47.88;;;27.75;;
76379;SDS011;65201;21.060;105.826;2023-02-28T12:11:26;48.70;;;28.48;;
76379;SDS011;65201;21.060;105.826;2023-02-28T12:16:31;42.70;;;28.13;;
76379;SDS011;65201;21.060;105.826;2023-02-28T12:21:36;43.22;;;26.52;;
76379;SDS011;65201;21.060;105.826;2023-02-28T12:26:44;46.33;;;28.50;;
76379;SDS011;65201;21.060;105.826;2023-02-28T12:29:17;42.15;;;26.88;;
76379;SDS011;65201;21.060;105.826;2023-02-28T12:31:46;43.17;;;26.97;;
76379;SDS011;65201;21.060;105.826;2023-02-28T12:34:15;44.47;;;27.33;;
76379;SDS011;65201;21.060;105.826;2023-02-28T12:36:43;47.15;;;28.50;;
76379;SDS011;65201;21.060;105.826;2023-02-28T12:39:12;45.83;;;27.95;;
76379;SDS011;65201;21.060;105.826;2023-02-28T12:44:47;42.53;;;26.87;;
76379;SDS011;65201;21.060;105.826;2023-02-28T12:47:16;44.08;;;27.95;;
76379;SDS011;65201;21.060;105.826;2023-02-28T12:49:54;48.33;;;28.33;;
76379;SDS011;65201;21.060;105.826;2023-02-28T12:57:36;41.60;;;26.80;;
76379;SDS011;65201;21.060;105.826;2023-02-28T13:00:09;40.90;;;26.88;;
76379;SDS011;65201;21.060;105.826;2023-02-28T13:02:52;41.40;;;26.45;;
76379;SDS011;65201;21.060;105.826;2023-02-28T13:10:24;40.03;;;25.47;;
76379;SDS011;65201;21.060;105.826;2023-02-28T13:12:54;42.75;;;25.95;;
76379;SDS011;65201;21.060;105.826;2023-02-28T13:15:21;47.10;;;26.75;;
76379;SDS011;65201;21.060;105.826;2023-02-28T13:17:53;40.50;;;25.98;;
76379;SDS011;65201;21.060;105.826;2023-02-28T13:22:53;43.20;;;26.50;;
76379;SDS011;65201;21.060;105.826;2023-02-28T13:27:49;41.15;;;25.98;;
76379;SDS011;65201;21.060;105.826;2023-02-28T13:36:09;39.67;;;24.80;;
76379;SDS011;65201;21.060;105.826;2023-02-28T13:38:36;41.95;;;26.35;;
76379;SDS011;65201;21.060;105.826;2023-02-28T13:59:50;40.60;;;24.10;;
76379;SDS011;65201;21.060;105.826;2023-02-28T14:04:47;37.45;;;23.92;;
76379;SDS011;65201;21.060;105.826;2023-02-28T14:07:20;43.17;;;24.65;;
76379;SDS011;65201;21.060;105.826;2023-02-28T14:09:51;37.55;;;23.63;;
76379;SDS011;65201;21.060;105.826;2023-02-28T14:15:27;42.07;;;22.93;;
76379;SDS011;65201;21.060;105.826;2023-02-28T14:17:52;33.53;;;22.95;;
76379;SDS011;65201;21.060;105.826;2023-02-28T14:20:19;36.83;;;22.67;;
76379;SDS011;65201;21.060;105.826;2023-02-28T14:28:04;38.67;;;22.47;;
76379;SDS011;65201;21.060;105.826;2023-02-28T14:33:14;36.63;;;21.80;;
76379;SDS011;65201;21.060;105.826;2023-02-28T14:38:29;41.78;;;21.33;;
76379;SDS011;65201;21.060;105.826;2023-02-28T14:40:58;40.43;;;21.67;;
76379;SDS011;65201;21.060;105.826;2023-02-28T14:43:27;35.67;;;21.67;;
76379;SDS011;65201;21.060;105.826;2023-02-28T14:45:55;38.38;;;23.33;;
76379;SDS011;65201;21.060;105.826;2023-02-28T14:48:22;39.85;;;22.73;;
76379;SDS011;65201;21.060;105.826;2023-02-28T14:50:54;35.28;;;21.98;;
76379;SDS011;65201;21.060;105.826;2023-02-28T14:53:21;34.97;;;21.23;;
76379;SDS011;65201;21.060;105.826;2023-02-28T14:55:48;36.97;;;22.27;;
76379;SDS011;65201;21.060;105.826;2023-02-28T15:00:50;35.17;;;20.65;;
76379;SDS011;65201;21.060;105.826;2023-02-28T15:03:20;37.67;;;22.60;;
76379;SDS011;65201;21.060;105.826;2023-02-28T15:06:19;36.00;;;21.33;;
76379;SDS011;65201;21.060;105.826;2023-02-28T15:08:38;34.63;;;20.77;;
76379;SDS011;65201;21.060;105.826;2023-02-28T15:11:05;35.65;;;21.02;;
76379;SDS011;65201;21.060;105.826;2023-02-28T15:16:03;40.55;;;21.00;;
76379;SDS011;65201;21.060;105.826;2023-02-28T15:18:48;32.70;;;20.17;;
76379;SDS011;65201;21.060;105.826;2023-02-28T15:21:16;30.88;;;19.90;;
76379;SDS011;65201;21.060;105.826;2023-02-28T15:23:44;35.25;;;20.27;;
76379;SDS011;65201;21.060;105.826;2023-02-28T15:26:15;33.85;;;20.10;;
76379;SDS011;65201;21.060;105.826;2023-02-28T15:28:42;35.67;;;20.10;;
76379;SDS011;65201;21.060;105.826;2023-02-28T15:31:23;36.40;;;19.03;;
76379;SDS011;65201;21.060;105.826;2023-02-28T15:33:55;41.60;;;20.55;;
76379;SDS011;65201;21.060;105.826;2023-02-28T15:36:24;32.88;;;19.67;;
76379;SDS011;65201;21.060;105.826;2023-02-28T15:38:51;33.30;;;18.85;;
76379;SDS011;65201;21.060;105.826;2023-02-28T15:41:27;31.92;;;20.10;;
76379;SDS011;65201;21.060;105.826;2023-02-28T15:46:38;34.00;;;18.55;;
76379;SDS011;65201;21.060;105.826;2023-02-28T15:49:04;34.38;;;18.98;;
76379;SDS011;65201;21.060;105.826;2023-02-28T15:51:32;37.08;;;19.75;;
76379;SDS011;65201;21.060;105.826;2023-02-28T15:56:26;38.43;;;21.43;;
76379;SDS011;65201;21.060;105.826;2023-02-28T15:58:53;33.83;;;19.80;;
76379;SDS011;65201;21.060;105.826;2023-02-28T16:01:24;34.38;;;20.05;;
76379;SDS011;65201;21.060;105.826;2023-02-28T16:03:51;35.55;;;19.52;;
76379;SDS011;65201;21.060;105.826;2023-02-28T16:06:53;33.13;;;18.90;;
76379;SDS011;65201;21.060;105.826;2023-02-28T16:09:14;32.15;;;18.17;;
76379;SDS011;65201;21.060;105.826;2023-02-28T16:11:42;37.65;;;20.02;;
76379;SDS011;65201;21.060;105.826;2023-02-28T16:14:14;36.15;;;18.90;;
76379;SDS011;65201;21.060;105.826;2023-02-28T16:16:45;42.25;;;19.13;;
76379;SDS011;65201;21.060;105.826;2023-02-28T16:19:11;34.20;;;18.53;;
76379;SDS011;65201;21.060;105.826;2023-02-28T16:21:37;42.05;;;19.65;;
76379;SDS011;65201;21.060;105.826;2023-02-28T16:24:03;39.90;;;19.63;;
76379;SDS011;65201;21.060;105.826;2023-02-28T16:26:29;42.50;;;19.73;;
76379;SDS011;65201;21.060;105.826;2023-02-28T16:28:55;37.50;;;19.00;;
76379;SDS011;65201;21.060;105.826;2023-02-28T16:31:21;36.97;;;18.77;;
76379;SDS011;65201;21.060;105.826;2023-02-28T16:33:47;38.25;;;18.98;;
76379;SDS011;65201;21.060;105.826;2023-02-28T16:36:17;41.20;;;19.65;;
76379;SDS011;65201;21.060;105.826;2023-02-28T16:38:43;39.20;;;19.60;;
76379;SDS011;65201;21.060;105.826;2023-02-28T16:41:11;39.30;;;18.38;;
76379;SDS011;65201;21.060;105.826;2023-02-28T16:43:41;36.17;;;19.03;;
76379;SDS011;65201;21.060;105.826;2023-02-28T16:46:10;38.13;;;19.33;;
76379;SDS011;65201;21.060;105.826;2023-02-28T16:48:36;38.42;;;19.05;;
76379;SDS011;65201;21.060;105.826;2023-02-28T16:51:02;36.67;;;18.83;;
76379;SDS011;65201;21.060;105.826;2023-02-28T16:53:29;34.95;;;18.42;;
76379;SDS011;65201;21.060;105.826;2023-02-28T16:55:55;34.10;;;18.17;;
76379;SDS011;65201;21.060;105.826;2023-02-28T16:58:21;38.00;;;19.17;;
76379;SDS011;65201;21.060;105.826;2023-02-28T17:00:50;32.83;;;18.25;;
76379;SDS011;65201;21.060;105.826;2023-02-28T17:03:22;38.50;;;18.50;;
76379;SDS011;65201;21.060;105.826;2023-02-28T17:05:48;34.30;;;18.30;;
76379;SDS011;65201;21.060;105.826;2023-02-28T17:08:14;33.07;;;18.27;;
76379;SDS011;65201;21.060;105.826;2023-02-28T17:10:41;35.88;;;17.63;;
76379;SDS011;65201;21.060;105.826;2023-02-28T17:13:07;37.13;;;18.20;;
76379;SDS011;65201;21.060;105.826;2023-02-28T17:15:34;36.50;;;18.42;;
76379;SDS011;65201;21.060;105.826;2023-02-28T17:18:01;33.57;;;18.00;;
76379;SDS011;65201;21.060;105.826;2023-02-28T17:20:27;37.75;;;18.05;;
76379;SDS011;65201;21.060;105.826;2023-02-28T17:22:53;32.55;;;17.70;;
76379;SDS011;65201;21.060;105.826;2023-02-28T17:25:19;33.28;;;17.45;;
76379;SDS011;65201;21.060;105.826;2023-02-28T17:27:45;33.63;;;17.73;;
76379;SDS011;65201;21.060;105.826;2023-02-28T17:30:24;30.93;;;16.83;;
76379;SDS011;65201;21.060;105.826;2023-02-28T17:32:53;30.25;;;17.20;;
76379;SDS011;65201;21.060;105.826;2023-02-28T17:35:19;31.73;;;17.15;;
76379;SDS011;65201;21.060;105.826;2023-02-28T17:37:45;28.45;;;16.80;;
76379;SDS011;65201;21.060;105.826;2023-02-28T17:40:18;29.35;;;16.33;;
76379;SDS011;65201;21.060;105.826;2023-02-28T17:42:44;29.07;;;16.43;;
76379;SDS011;65201;21.060;105.826;2023-02-28T17:45:11;31.38;;;16.75;;
76379;SDS011;65201;21.060;105.826;2023-02-28T17:47:38;30.67;;;17.33;;
76379;SDS011;65201;21.060;105.826;2023-02-28T17:50:04;33.42;;;16.92;;
76379;SDS011;65201;21.060;105.826;2023-02-28T17:52:30;28.70;;;16.70;;
76379;SDS011;65201;21.060;105.826;2023-02-28T17:55:02;35.00;;;17.10;;
76379;SDS011;65201;21.060;105.826;2023-02-28T17:57:28;26.65;;;16.10;;
76379;SDS011;65201;21.060;105.826;2023-02-28T17:59:54;28.90;;;16.35;;
76379;SDS011;65201;21.060;105.826;2023-02-28T18:02:20;27.13;;;15.73;;
76379;SDS011;65201;21.060;105.826;2023-02-28T18:04:46;29.33;;;17.00;;
76379;SDS011;65201;21.060;105.826;2023-02-28T18:07:12;27.27;;;16.23;;
76379;SDS011;65201;21.060;105.826;2023-02-28T18:09:38;28.75;;;16.58;;
76379;SDS011;65201;21.060;105.826;2023-02-28T18:12:04;28.60;;;15.68;;
76379;SDS011;65201;21.060;105.826;2023-02-28T18:14:30;29.73;;;16.20;;
76379;SDS011;65201;21.060;105.826;2023-02-28T18:16:56;29.67;;;16.90;;
76379;SDS011;65201;21.060;105.826;2023-02-28T18:19:22;26.48;;;16.05;;
76379;SDS011;65201;21.060;105.826;2023-02-28T18:21:50;32.45;;;16.80;;
76379;SDS011;65201;21.060;105.826;2023-02-28T18:24:16;28.52;;;15.95;;
76379;SDS011;65201;21.060;105.826;2023-02-28T18:26:43;27.30;;;16.98;;
76379;SDS011;65201;21.060;105.826;2023-02-28T18:29:13;27.33;;;16.50;;
76379;SDS011;65201;21.060;105.826;2023-02-28T18:31:41;27.63;;;16.98;;
76379;SDS011;65201;21.060;105.826;2023-02-28T18:34:07;28.58;;;17.02;;
76379;SDS011;65201;21.060;105.826;2023-02-28T18:36:33;30.50;;;16.88;;
76379;SDS011;65201;21.060;105.826;2023-02-28T18:38:59;32.50;;;17.50;;
76379;SDS011;65201;21.060;105.826;2023-02-28T18:41:25;35.08;;;18.17;;
76379;SDS011;65201;21.060;105.826;2023-02-28T18:43:53;30.80;;;18.45;;
76379;SDS011;65201;21.060;105.826;2023-02-28T18:46:19;28.92;;;17.35;;
76379;SDS011;65201;21.060;105.826;2023-02-28T18:48:46;31.17;;;18.75;;
76379;SDS011;65201;21.060;105.826;2023-02-28T18:51:13;31.93;;;17.83;;
76379;SDS011;65201;21.060;105.826;2023-02-28T18:53:40;31.25;;;18.10;;
76379;SDS011;65201;21.060;105.826;2023-02-28T18:56:07;27.65;;;17.88;;
76379;SDS011;65201;21.060;105.826;2023-02-28T18:58:33;34.25;;;18.50;;
76379;SDS011;65201;21.060;105.826;2023-02-28T19:01:00;32.70;;;18.73;;
76379;SDS011;65201;21.060;105.826;2023-02-28T19:03:26;30.90;;;17.60;;
76379;SDS011;65201;21.060;105.826;2023-02-28T19:05:55;29.10;;;18.42;;
76379;SDS011;65201;21.060;105.826;2023-02-28T19:08:22;34.13;;;18.98;;
76379;SDS011;65201;21.060;105.826;2023-02-28T19:10:48;32.30;;;19.40;;
76379;SDS011;65201;21.060;105.826;2023-02-28T19:13:14;32.70;;;18.50;;
76379;SDS011;65201;21.060;105.826;2023-02-28T19:15:40;33.20;;;18.83;;
76379;SDS011;65201;21.060;105.826;2023-02-28T19:18:06;34.35;;;19.50;;
76379;SDS011;65201;21.060;105.826;2023-02-28T19:20:32;31.80;;;19.17;;
76379;SDS011;65201;21.060;105.826;2023-02-28T19:22:58;38.08;;;20.17;;
76379;SDS011;65201;21.060;105.826;2023-02-28T19:25:24;35.53;;;18.47;;
76379;SDS011;65201;21.060;105.826;2023-02-28T19:27:53;32.67;;;19.25;;
76379;SDS011;65201;21.060;105.826;2023-02-28T19:30:20;34.20;;;19.80;;
76379;SDS011;65201;21.060;105.826;2023-02-28T19:32:46;34.67;;;19.65;;
76379;SDS011;65201;21.060;105.826;2023-02-28T19:35:12;31.02;;;18.63;;
76379;SDS011;65201;21.060;105.826;2023-02-28T19:37:39;31.00;;;18.33;;
76379;SDS011;65201;21.060;105.826;2023-02-28T19:40:08;35.05;;;18.88;;
76379;SDS011;65201;21.060;105.826;2023-02-28T19:42:35;36.28;;;19.38;;
76379;SDS011;65201;21.060;105.826;2023-02-28T19:45:01;30.17;;;18.73;;
76379;SDS011;65201;21.060;105.826;2023-02-28T19:47:28;31.02;;;18.35;;
76379;SDS011;65201;21.060;105.826;2023-02-28T19:49:57;32.20;;;18.37;;
76379;SDS011;65201;21.060;105.826;2023-02-28T19:52:23;33.53;;;18.55;;
76379;SDS011;65201;21.060;105.826;2023-02-28T19:54:50;35.55;;;18.52;;
76379;SDS011;65201;21.060;105.826;2023-02-28T19:57:16;31.23;;;18.15;;
76379;SDS011;65201;21.060;105.826;2023-02-28T19:59:43;31.55;;;17.73;;
76379;SDS011;65201;21.060;105.826;2023-02-28T20:02:19;29.83;;;17.90;;
76379;SDS011;65201;21.060;105.826;2023-02-28T20:04:45;32.13;;;18.45;;
76379;SDS011;65201;21.060;105.826;2023-02-28T20:07:13;30.23;;;18.52;;
76379;SDS011;65201;21.060;105.826;2023-02-28T20:09:39;30.08;;;17.58;;
76379;SDS011;65201;21.060;105.826;2023-02-28T20:12:05;33.00;;;18.50;;
76379;SDS011;65201;21.060;105.826;2023-02-28T20:14:31;30.00;;;18.97;;
76379;SDS011;65201;21.060;105.826;2023-02-28T20:16:57;28.70;;;17.35;;
76379;SDS011;65201;21.060;105.826;2023-02-28T20:19:23;30.70;;;18.30;;
76379;SDS011;65201;21.060;105.826;2023-02-28T20:21:49;26.27;;;17.48;;
76379;SDS011;65201;21.060;105.826;2023-02-28T20:24:15;28.80;;;17.60;;
76379;SDS011;65201;21.060;105.826;2023-02-28T20:26:41;29.98;;;18.35;;
76379;SDS011;65201;21.060;105.826;2023-02-28T20:29:07;33.13;;;18.05;;
76379;SDS011;65201;21.060;105.826;2023-02-28T20:31:33;29.95;;;17.42;;
76379;SDS011;65201;21.060;105.826;2023-02-28T20:34:02;27.70;;;16.95;;
76379;SDS011;65201;21.060;105.826;2023-02-28T20:36:28;30.07;;;18.87;;
76379;SDS011;65201;21.060;105.826;2023-02-28T20:38:54;30.23;;;17.98;;
76379;SDS011;65201;21.060;105.826;2023-02-28T20:41:20;29.60;;;18.10;;
76379;SDS011;65201;21.060;105.826;2023-02-28T20:43:46;27.60;;;17.63;;
76379;SDS011;65201;21.060;105.826;2023-02-28T20:46:13;29.08;;;17.88;;
76379;SDS011;65201;21.060;105.826;2023-02-28T20:48:39;30.07;;;18.13;;
76379;SDS011;65201;21.060;105.826;2023-02-28T20:51:05;32.22;;;19.35;;
76379;SDS011;65201;21.060;105.826;2023-02-28T20:53:32;29.17;;;17.98;;
76379;SDS011;65201;21.060;105.826;2023-02-28T20:56:05;30.45;;;18.27;;
76379;SDS011;65201;21.060;105.826;2023-02-28T20:58:34;27.27;;;18.08;;
76379;SDS011;65201;21.060;105.826;2023-02-28T21:03:42;29.08;;;18.05;;
76379;SDS011;65201;21.060;105.826;2023-02-28T21:06:08;30.48;;;18.50;;
76379;SDS011;65201;21.060;105.826;2023-02-28T21:08:34;27.80;;;17.92;;
76379;SDS011;65201;21.060;105.826;2023-02-28T21:11:16;29.38;;;17.77;;
76379;SDS011;65201;21.060;105.826;2023-02-28T21:13:44;30.83;;;17.67;;
76379;SDS011;65201;21.060;105.826;2023-02-28T21:16:11;30.60;;;18.23;;
76379;SDS011;65201;21.060;105.826;2023-02-28T21:18:38;31.23;;;18.25;;
76379;SDS011;65201;21.060;105.826;2023-02-28T21:21:06;30.70;;;18.98;;
76379;SDS011;65201;21.060;105.826;2023-02-28T21:23:32;31.30;;;18.60;;
76379;SDS011;65201;21.060;105.826;2023-02-28T21:26:05;30.93;;;18.13;;
76379;SDS011;65201;21.060;105.826;2023-02-28T21:28:32;28.70;;;17.75;;
76379;SDS011;65201;21.060;105.826;2023-02-28T21:31:02;29.40;;;18.33;;
76379;SDS011;65201;21.060;105.826;2023-02-28T21:33:29;31.00;;;18.23;;
76379;SDS011;65201;21.060;105.826;2023-02-28T21:35:59;31.70;;;18.35;;
76379;SDS011;65201;21.060;105.826;2023-02-28T21:38:26;32.23;;;18.70;;
76379;SDS011;65201;21.060;105.826;2023-02-28T21:40:52;32.90;;;18.92;;
76379;SDS011;65201;21.060;105.826;2023-02-28T21:43:18;36.72;;;19.02;;
76379;SDS011;65201;21.060;105.826;2023-02-28T21:45:44;33.50;;;19.02;;
76379;SDS011;65201;21.060;105.826;2023-02-28T21:48:11;31.13;;;19.23;;
76379;SDS011;65201;21.060;105.826;2023-02-28T21:50:37;31.37;;;18.50;;
76379;SDS011;65201;21.060;105.826;2023-02-28T21:53:03;32.38;;;19.17;;
76379;SDS011;65201;21.060;105.826;2023-02-28T21:55:29;31.30;;;18.42;;
76379;SDS011;65201;21.060;105.826;2023-02-28T21:57:55;28.98;;;17.48;;
76379;SDS011;65201;21.060;105.826;2023-02-28T22:00:22;31.02;;;18.67;;
76379;SDS011;65201;21.060;105.826;2023-02-28T22:02:48;30.70;;;18.93;;
76379;SDS011;65201;21.060;105.826;2023-02-28T22:05:14;29.42;;;18.25;;
76379;SDS011;65201;21.060;105.826;2023-02-28T22:07:40;32.83;;;19.40;;
76379;SDS011;65201;21.060;105.826;2023-02-28T22:10:06;34.33;;;19.20;;
76379;SDS011;65201;21.060;105.826;2023-02-28T22:12:33;28.40;;;18.05;;
76379;SDS011;65201;21.060;105.826;2023-02-28T22:14:59;35.60;;;19.80;;
76379;SDS011;65201;21.060;105.826;2023-02-28T22:17:25;31.10;;;19.02;;
76379;SDS011;65201;21.060;105.826;2023-02-28T22:19:51;32.00;;;18.48;;
76379;SDS011;65201;21.060;105.826;2023-02-28T22:22:18;30.17;;;19.13;;
76379;SDS011;65201;21.060;105.826;2023-02-28T22:24:44;30.67;;;18.83;;
76379;SDS011;65201;21.060;105.826;2023-02-28T22:27:10;33.27;;;19.60;;
76379;SDS011;65201;21.060;105.826;2023-02-28T22:29:36;34.85;;;19.67;;
76379;SDS011;65201;21.060;105.826;2023-02-28T22:32:02;31.70;;;19.20;;
76379;SDS011;65201;21.060;105.826;2023-02-28T22:34:28;33.40;;;18.77;;
76379;SDS011;65201;21.060;105.826;2023-02-28T22:36:55;32.15;;;19.40;;
76379;SDS011;65201;21.060;105.826;2023-02-28T22:39:22;31.27;;;19.40;;
76379;SDS011;65201;21.060;105.826;2023-02-28T22:41:49;32.20;;;19.42;;
76379;SDS011;65201;21.060;105.826;2023-02-28T22:44:15;30.77;;;18.98;;
76379;SDS011;65201;21.060;105.826;2023-02-28T22:46:41;31.00;;;19.08;;
76379;SDS011;65201;21.060;105.826;2023-02-28T22:49:07;30.85;;;18.88;;
76379;SDS011;65201;21.060;105.826;2023-02-28T22:51:33;29.87;;;18.43;;
76379;SDS011;65201;21.060;105.826;2023-02-28T22:53:59;31.10;;;18.88;;
76379;SDS011;65201;21.060;105.826;2023-02-28T22:56:27;31.25;;;19.05;;
76379;SDS011;65201;21.060;105.826;2023-02-28T22:58:54;30.27;;;19.15;;
76379;SDS011;65201;21.060;105.826;2023-02-28T23:01:21;31.77;;;19.52;;
76379;SDS011;65201;21.060;105.826;2023-02-28T23:03:47;31.90;;;19.43;;
76379;SDS011;65201;21.060;105.826;2023-02-28T23:06:16;31.08;;;19.65;;
76379;SDS011;65201;21.060;105.826;2023-02-28T23:08:42;29.65;;;18.90;;
76379;SDS011;65201;21.060;105.826;2023-02-28T23:11:08;28.88;;;18.25;;
76379;SDS011;65201;21.060;105.826;2023-02-28T23:13:35;32.22;;;18.83;;
76379;SDS011;65201;21.060;105.826;2023-02-28T23:16:11;32.77;;;19.33;;
76379;SDS011;65201;21.060;105.826;2023-02-28T23:18:37;31.02;;;19.23;;
76379;SDS011;65201;21.060;105.826;2023-02-28T23:21:03;31.20;;;19.55;;
76379;SDS011;65201;21.060;105.826;2023-02-28T23:23:29;30.92;;;18.95;;
76379;SDS011;65201;21.060;105.826;2023-02-28T23:25:56;31.35;;;19.10;;
76379;SDS011;65201;21.060;105.826;2023-02-28T23:28:22;32.23;;;19.40;;
76379;SDS011;65201;21.060;105.826;2023-02-28T23:30:48;33.22;;;19.95;;
76379;SDS011;65201;21.060;105.826;2023-02-28T23:33:16;29.58;;;19.10;;
76379;SDS011;65201;21.060;105.826;2023-02-28T23:35:42;29.02;;;18.30;;
76379;SDS011;65201;21.060;105.826;2023-02-28T23:38:08;31.55;;;18.50;;
76379;SDS011;65201;21.060;105.826;2023-02-28T23:40:34;32.00;;;19.80;;
76379;SDS011;65201;21.060;105.826;2023-02-28T23:43:00;30.58;;;19.67;;
76379;SDS011;65201;21.060;105.826;2023-02-28T23:45:27;28.23;;;18.15;;
76379;SDS011;65201;21.060;105.826;2023-02-28T23:47:53;32.42;;;19.10;;
76379;SDS011;65201;21.060;105.826;2023-02-28T23:50:19;32.13;;;19.77;;
76379;SDS011;65201;21.060;105.826;2023-02-28T23:52:45;32.23;;;20.03;;
76379;SDS011;65201;21.060;105.826;2023-02-28T23:55:12;32.97;;;19.92;;
76379;SDS011;65201;21.060;105.826;2023-02-28T23:57:38;31.15;;;20.13;;
